Terminal Aerodrome Forecast
Issued by NWS Louisville, KY

Home | Current Version | Previous Version | Text Only | Print | Product List | Glossary On
Versions: 1 2 3 4 5 6 7 8 9 10 11 12 13 14
000
FTUS43 KLMK 010520
TAFBWG
TAF
KBWG 010520Z 0106/0206 00000KT P6SM SCT250
     FM011600 23007KT P6SM SCT050 BKN250
     FM012200 25007KT P6SM VCTS SCT050CB BKN250
     FM020200 VRB03KT P6SM BKN250=

USA.gov is the U.S. government's official web portal to all federal, state and local government web resources and services.